Time;durP1;ratioP1;P1;durP2;ratioP2;P2;SDS_P1;SDS_P2;PMS_P1;PMS_P2;Temp;Humidity;BMP_temperature;BMP_pressure;BME280_temperature;BME280_humidity;BME280_pressure;Samples;Min_cycle;Max_cycle;Signal;HPM_P1;HPM_P2
2023/07/15 00:00:41;;;;;;;;;;;;;;;21.64;49.07;100323.09;4935336;29;19923;-78
2023/07/15 00:03:10;;;;;;;;;;;;;;;21.65;48.84;100326.63;4949171;29;19918;-79
2023/07/15 00:05:37;;;;;;;;;;;;;;;;;;4949071;29;19919;-79
2023/07/15 00:08:03;;;;;;;;;;;;;;;21.67;48.76;100316.59;4949924;29;19989;-78
2023/07/15 00:10:29;;;;;;;;;;;;;;;21.69;49.04;100328.97;4933356;29;20361;-79
2023/07/15 00:12:54;;;;;;;;;;;;;;;21.68;48.57;100312.91;4952990;29;19918;-79
2023/07/15 00:15:20;;;;;;;;;;;;;;;21.70;48.79;100327.13;4908070;29;20334;-79
2023/07/15 00:17:45;;;;;;;;;;;;;;;21.75;48.32;100321.41;4943814;29;19926;-76
2023/07/15 00:20:14;;;;;;;;;;;;;;;21.75;48.10;100324.94;4899723;29;19930;-78
2023/07/15 00:22:43;;;;;;;;;;;;;;;21.74;48.40;100323.25;4933099;29;19927;-78
2023/07/15 00:25:13;;;;;;;;;;;;;;;21.74;48.37;100320.56;4916054;29;20342;-78
2023/07/15 00:27:38;;;;;;;;;;;;;;;21.75;48.22;100324.94;4932988;29;19967;-78
2023/07/15 00:30:04;;;;;;;;;;;;;;;21.76;47.78;100333.88;4915492;29;20024;-78
2023/07/15 00:32:29;;;;;;;;;;;;;;;21.76;47.41;100313.22;4942543;29;19930;-78
2023/07/15 00:34:54;;;;;;;;;;;;;;;21.76;47.78;100329.38;4903644;29;19970;-78
2023/07/15 00:37:20;;;;;;;;;;;;;;;21.77;47.88;100319.47;4935601;29;20002;-78
2023/07/15 00:39:46;;;;;;;;;;;;;;;21.75;47.59;100321.41;4956487;29;20467;-77
2023/07/15 00:42:17;;;;;;;;;;;;;;;21.75;47.30;100333.03;4939053;29;20005;-78
2023/07/15 00:44:42;;;;;;;;;;;;;;;21.76;47.93;100325.81;4922912;29;19926;-78
2023/07/15 00:47:25;;;;;;;;;;;;;;;21.75;47.39;100329.47;4939046;29;19922;-78
2023/07/15 00:49:50;;;;;;;;;;;;;;;21.76;47.94;100334.78;4956352;29;20005;-78
2023/07/15 00:52:19;;;;;;;;;;;;;;;21.76;48.02;100329.38;4939026;29;20013;-78
2023/07/15 00:54:45;;;;;;;;;;;;;;;21.78;47.91;100331.94;4938398;29;19969;-78
2023/07/15 00:57:13;;;;;;;;;;;;;;;21.78;48.08;100335.47;4938814;29;19946;-78
2023/07/15 00:59:39;;;;;;;;;;;;;;;21.78;47.25;100337.31;4938855;29;19922;-78
2023/07/15 01:02:05;;;;;;;;;;;;;;;21.79;47.58;100341.75;4939026;29;20325;-78
2023/07/15 01:04:30;;;;;;;;;;;;;;;21.78;47.85;100340.03;4945961;28;19922;-78
2023/07/15 01:06:57;;;;;;;;;;;;;;;21.76;47.82;100336.59;4920081;29;19922;-78
2023/07/15 01:09:23;;;;;;;;;;;;;;;21.74;47.82;100344.81;4946522;29;20293;-78
2023/07/15 01:11:49;;;;;;;;;;;;;;;21.72;47.83;100341.38;4934214;29;20330;-78
2023/07/15 01:14:14;;;;;;;;;;;;;;;21.68;47.85;100348.81;4952864;29;19941;-78
2023/07/15 01:16:40;;;;;;;;;;;;;;;21.67;47.83;100352.50;4928976;29;19982;-78
2023/07/15 01:19:06;;;;;;;;;;;;;;;21.62;48.02;100343.91;4953505;29;19927;-78
2023/07/15 01:21:36;;;;;;;;;;;;;;;21.58;48.04;100346.94;4903641;29;19922;-78
2023/07/15 01:24:02;;;;;;;;;;;;;;;21.54;48.27;100345.44;4935322;29;19974;-78
2023/07/15 01:26:28;;;;;;;;;;;;;;;21.50;48.49;100338.59;4935513;29;20290;-78
2023/07/15 01:28:53;;;;;;;;;;;;;;;21.46;48.53;100338.81;4936831;29;19990;-78
2023/07/15 01:31:19;;;;;;;;;;;;;;;21.39;48.63;100333.97;4935684;29;19919;-78
2023/07/15 01:33:45;;;;;;;;;;;;;;;21.32;48.61;100333.56;4936973;29;19919;-78
2023/07/15 01:36:10;;;;;;;;;;;;;;;21.25;48.71;100335.84;4919687;29;19965;-78
2023/07/15 01:38:37;;;;;;;;;;;;;;;21.22;48.68;100349.56;4932863;29;20445;-78
2023/07/15 01:41:03;;;;;;;;;;;;;;;21.18;48.93;100339.97;4920097;29;20318;-78
2023/07/15 01:43:30;;;;;;;;;;;;;;;21.13;49.01;100349.38;4920127;29;19998;-78
2023/07/15 01:45:57;;;;;;;;;;;;;;;21.08;49.24;100351.56;4937080;29;20005;-78
2023/07/15 01:48:25;;;;;;;;;;;;;;;21.04;49.20;100353.59;4919577;29;20247;-78
2023/07/15 01:50:51;;;;;;;;;;;;;;;20.99;49.31;100353.97;4934450;29;19919;-78
2023/07/15 01:53:16;;;;;;;;;;;;;;;20.94;49.40;100355.25;4936418;29;19927;-77
2023/07/15 01:55:41;;;;;;;;;;;;;;;20.90;49.73;100357.31;4919243;29;20029;-78
2023/07/15 01:58:07;;;;;;;;;;;;;;;20.87;49.72;100353.97;4887948;29;20341;-78
2023/07/15 02:00:32;;;;;;;;;;;;;;;20.83;49.67;100364.97;4934981;29;19926;-78
2023/07/15 02:02:57;;;;;;;;;;;;;;;20.81;49.72;100366.03;4935917;29;20220;-78
2023/07/15 02:05:23;;;;;;;;;;;;;;;20.75;49.72;100350.34;4919297;29;20066;-78
2023/07/15 02:07:48;;;;;;;;;;;;;;;20.71;50.07;100363.16;4918884;29;19938;-78
2023/07/15 02:10:14;;;;;;;;;;;;;;;20.70;50.04;100368.66;4918092;29;19918;-78
2023/07/15 02:12:39;;;;;;;;;;;;;;;20.69;50.22;100375.84;4903380;29;19923;-78
2023/07/15 02:15:05;;;;;;;;;;;;;;;20.68;50.20;100363.38;4951488;29;19927;-78
2023/07/15 02:17:30;;;;;;;;;;;;;;;20.62;50.80;100366.50;4938192;29;19962;-78
2023/07/15 02:19:58;;;;;;;;;;;;;;;20.58;50.86;100365.00;4955417;29;20356;-78
2023/07/15 02:22:24;;;;;;;;;;;;;;;20.52;50.67;100370.78;4938018;29;19974;-78
2023/07/15 02:24:49;;;;;;;;;;;;;;;20.46;50.71;100363.16;4953654;29;19961;-78
2023/07/15 02:27:16;;;;;;;;;;;;;;;20.39;50.73;100360.03;4955266;29;19919;-76
2023/07/15 02:29:42;;;;;;;;;;;;;;;20.35;50.84;100369.28;4953365;29;20282;-77
2023/07/15 02:32:07;;;;;;;;;;;;;;;20.29;51.53;100367.03;4954992;29;19922;-77
2023/07/15 02:34:32;;;;;;;;;;;;;;;20.26;51.35;100369.94;4954856;29;19977;-77
2023/07/15 02:36:58;;;;;;;;;;;;;;;20.22;51.56;100371.09;4953469;29;19922;-76
2023/07/15 02:39:24;;;;;;;;;;;;;;;20.19;51.56;100377.56;4953515;29;19927;-77
2023/07/15 02:41:50;;;;;;;;;;;;;;;20.16;51.53;100372.41;4953453;29;19991;-77
2023/07/15 02:44:15;;;;;;;;;;;;;;;20.09;51.61;100371.97;4937604;29;19930;-77
2023/07/15 02:46:41;;;;;;;;;;;;;;;20.06;51.71;100374.88;4954759;29;20393;-76
2023/07/15 02:49:06;;;;;;;;;;;;;;;20.05;51.43;100367.75;4937198;29;20018;-77
2023/07/15 02:51:33;;;;;;;;;;;;;;;20.01;51.81;100362.72;4954421;29;19930;-77
2023/07/15 02:54:02;;;;;;;;;;;;;;;19.97;51.96;100362.06;4953515;29;19922;-77
2023/07/15 02:56:27;;;;;;;;;;;;;;;19.92;52.19;100357.00;4954558;29;19953;-77
2023/07/15 02:58:54;;;;;;;;;;;;;;;19.88;51.91;100350.13;4966512;28;20500;-77
2023/07/15 03:01:19;;;;;;;;;;;;;;;19.84;52.15;100362.03;4952817;28;19919;-77
2023/07/15 03:03:48;;;;;;;;;;;;;;;19.79;52.33;100363.31;4944429;29;20569;-77
2023/07/15 03:06:13;;;;;;;;;;;;;;;19.73;52.46;100359.19;4937175;29;20310;-77
2023/07/15 03:08:38;;;;;;;;;;;;;;;19.68;52.53;100350.59;4953140;28;19914;-77
2023/07/15 03:11:07;;;;;;;;;;;;;;;19.61;52.79;100365.38;4935773;29;20026;-77
2023/07/15 03:13:33;;;;;;;;;;;;;;;19.53;52.75;100352.47;4944224;29;19927;-77
2023/07/15 03:15:58;;;;;;;;;;;;;;;19.44;53.05;100361.16;4969077;28;20313;-78
2023/07/15 03:18:25;;;;;;;;;;;;;;;19.33;53.10;100354.63;4969182;28;19930;-78
2023/07/15 03:20:51;;;;;;;;;;;;;;;19.27;53.30;100355.06;4955449;29;19968;-79
2023/07/15 03:23:16;;;;;;;;;;;;;;;19.24;53.38;100362.47;4952310;29;19958;-78
2023/07/15 03:25:41;;;;;;;;;;;;;;;19.17;53.67;100362.00;4951695;29;19981;-78
2023/07/15 03:28:07;;;;;;;;;;;;;;;19.12;53.91;100366.81;4953459;29;20338;-79
2023/07/15 03:30:33;;;;;;;;;;;;;;;19.05;54.19;100370.84;4951909;29;19969;-78
2023/07/15 03:32:58;;;;;;;;;;;;;;;18.98;54.75;100367.69;4952166;29;19922;-78
2023/07/15 03:35:24;;;;;;;;;;;;;;;18.94;55.01;100367.97;4951884;29;20377;-78
2023/07/15 03:37:49;;;;;;;;;;;;;;;18.89;54.60;100363.78;4951926;29;20017;-79
2023/07/15 03:40:15;;;;;;;;;;;;;;;18.86;54.51;100360.44;4953145;29;19923;-78
2023/07/15 03:42:41;;;;;;;;;;;;;;;18.82;54.87;100370.50;4953426;29;19918;-78
2023/07/15 03:45:07;;;;;;;;;;;;;;;18.78;55.14;100365.44;4951624;29;20022;-78
2023/07/15 03:47:35;;;;;;;;;;;;;;;18.72;55.25;100366.66;4935946;29;19921;-78
2023/07/15 03:50:04;;;;;;;;;;;;;;;18.67;55.41;100363.41;4952887;29;19922;-79
2023/07/15 03:52:30;;;;;;;;;;;;;;;18.60;55.87;100368.28;4951751;29;20037;-78
2023/07/15 03:54:56;;;;;;;;;;;;;;;18.56;55.81;100361.38;4953060;29;20037;-79
2023/07/15 03:57:21;;;;;;;;;;;;;;;18.50;55.55;100369.81;4952954;29;19922;-77
2023/07/15 03:59:46;;;;;;;;;;;;;;;18.45;56.32;100359.38;4951661;29;19941;-77
2023/07/15 04:02:12;;;;;;;;;;;;;;;18.42;56.65;100356.00;4952792;29;20433;-77
2023/07/15 04:04:37;;;;;;;;;;;;;;;18.39;56.06;100362.44;4946431;28;20392;-77
2023/07/15 04:07:02;;;;;;;;;;;;;;;18.37;56.70;100355.44;4951689;29;20270;-77
2023/07/15 04:09:28;;;;;;;;;;;;;;;18.37;56.68;100361.69;4950659;28;19954;-77
2023/07/15 04:11:53;;;;;;;;;;;;;;;18.38;56.82;100357.19;4952330;28;20241;-77
2023/07/15 04:14:19;;;;;;;;;;;;;;;18.41;56.40;100357.84;4938303;29;20448;-77
2023/07/15 04:16:44;;;;;;;;;;;;;;;18.40;56.82;100350.75;4952460;29;20274;-77
2023/07/15 04:19:09;;;;;;;;;;;;;;;18.39;58.37;100362.44;4951095;29;19927;-77
2023/07/15 04:21:36;;;;;;;;;;;;;;;18.39;57.72;100358.88;4952771;29;19926;-76
2023/07/15 04:24:01;;;;;;;;;;;;;;;18.41;57.50;100359.66;4963373;28;19915;-77
2023/07/15 04:26:27;;;;;;;;;;;;;;;18.42;56.07;100356.91;4952886;29;20373;-77
2023/07/15 04:28:54;;;;;;;;;;;;;;;18.46;56.87;100369.13;4952564;29;19918;-77
2023/07/15 04:31:20;;;;;;;;;;;;;;;18.48;57.32;100366.38;4952777;29;20230;-76
2023/07/15 04:33:46;;;;;;;;;;;;;;;18.48;57.41;100371.72;4952901;29;20013;-76
2023/07/15 04:36:11;;;;;;;;;;;;;;;18.48;57.22;100375.28;4952517;29;19922;-76
2023/07/15 04:38:37;;;;;;;;;;;;;;;18.50;57.22;100375.19;4951189;29;20018;-77
2023/07/15 04:41:02;;;;;;;;;;;;;;;18.53;57.53;100379.50;4951227;29;20378;-77
2023/07/15 04:43:27;;;;;;;;;;;;;;;18.54;58.06;100379.38;4952659;29;19922;-77
2023/07/15 04:45:53;;;;;;;;;;;;;;;18.56;57.82;100384.66;4951356;29;19938;-77
2023/07/15 04:48:18;;;;;;;;;;;;;;;18.58;57.86;100383.59;4967039;28;19932;-77
2023/07/15 04:50:44;;;;;;;;;;;;;;;18.62;57.52;100378.91;4951018;29;19941;-77
2023/07/15 04:53:10;;;;;;;;;;;;;;;18.65;58.12;100384.09;4952138;29;19928;-77
2023/07/15 04:55:35;;;;;;;;;;;;;;;18.69;58.07;100396.31;4935171;29;19922;-77
2023/07/15 04:58:01;;;;;;;;;;;;;;;18.73;58.61;100386.28;4952315;29;20026;-77
2023/07/15 05:00:27;;;;;;;;;;;;;;;18.78;59.19;100384.22;4952047;29;20444;-77
2023/07/15 05:02:52;;;;;;;;;;;;;;;18.83;59.23;100384.78;4932596;28;19988;-77
2023/07/15 05:05:18;;;;;;;;;;;;;;;18.90;58.94;100386.97;4948096;29;20017;-77
2023/07/15 05:07:43;;;;;;;;;;;;;;;18.99;59.13;100379.28;4950938;29;19919;-76
2023/07/15 05:10:09;;;;;;;;;;;;;;;19.07;58.83;100382.34;4948651;28;20266;-77
2023/07/15 05:12:36;;;;;;;;;;;;;;;19.13;59.25;100380.09;4934690;29;19918;-77
2023/07/15 05:15:01;;;;;;;;;;;;;;;19.20;59.53;100380.59;4937851;28;20405;-77
2023/07/15 05:17:27;;;;;;;;;;;;;;;19.26;59.13;100368.56;4899740;29;19945;-77
2023/07/15 05:19:52;;;;;;;;;;;;;;;19.32;58.93;100379.78;4932843;29;19923;-77
2023/07/15 05:22:18;;;;;;;;;;;;;;;19.38;58.93;100383.88;4915493;29;20014;-77
2023/07/15 05:24:43;;;;;;;;;;;;;;;19.46;58.72;100386.06;4933539;29;20271;-77
2023/07/15 05:27:09;;;;;;;;;;;;;;;19.53;59.23;100388.25;4935114;29;19918;-76
2023/07/15 05:29:34;;;;;;;;;;;;;;;19.60;59.15;100383.31;4934596;29;19923;-78
2023/07/15 05:32:00;;;;;;;;;;;;;;;19.65;59.07;100388.38;4934839;29;19927;-77
2023/07/15 05:34:25;;;;;;;;;;;;;;;19.71;58.59;100388.88;4934073;29;19923;-77
2023/07/15 05:36:50;;;;;;;;;;;;;;;19.77;58.72;100383.06;4935693;29;19918;-77
2023/07/15 05:39:16;;;;;;;;;;;;;;;19.84;58.00;100390.75;4934301;29;19955;-78
2023/07/15 05:41:41;;;;;;;;;;;;;;;19.90;58.96;100393.84;4935679;29;19928;-78
2023/07/15 05:44:07;;;;;;;;;;;;;;;19.96;58.94;100390.75;4934465;29;19989;-78
2023/07/15 05:46:33;;;;;;;;;;;;;;;20.05;58.43;100386.56;4934439;29;20358;-77
2023/07/15 05:48:58;;;;;;;;;;;;;;;20.14;58.10;100385.94;4934880;29;19919;-78
2023/07/15 05:51:24;;;;;;;;;;;;;;;20.25;57.27;100393.28;4938767;29;19922;-78
2023/07/15 05:53:49;;;;;;;;;;;;;;;20.36;58.76;100403.28;4950853;29;19923;-78
2023/07/15 05:56:14;;;;;;;;;;;;;;;20.44;58.48;100400.91;4942365;29;19919;-78
2023/07/15 05:58:40;;;;;;;;;;;;;;;20.50;57.68;100402.28;4940422;29;19937;-77
2023/07/15 06:01:06;;;;;;;;;;;;;;;20.57;57.59;100401.81;4944642;29;19930;-77
2023/07/15 06:03:31;;;;;;;;;;;;;;;20.66;59.23;100399.44;4950108;28;20393;-78
2023/07/15 06:06:01;;;;;;;;;;;;;;;20.69;59.67;100405.44;4935700;29;20046;-78
2023/07/15 06:08:26;;;;;;;;;;;;;;;20.71;59.36;100405.34;4918059;29;20262;-78
2023/07/15 06:10:52;;;;;;;;;;;;;;;20.76;60.66;100397.81;4928384;29;19923;-78
2023/07/15 06:13:17;;;;;;;;;;;;;;;20.80;59.77;100393.94;4901873;29;20430;-78
2023/07/15 06:15:46;;;;;;;;;;;;;;;20.89;59.20;100390.56;4927965;29;19927;-78
2023/07/15 06:18:11;;;;;;;;;;;;;;;21.01;59.07;100399.59;4936296;29;20390;-78
2023/07/15 06:20:38;;;;;;;;;;;;;;;21.10;58.86;100403.47;4954259;29;19927;-76
2023/07/15 06:23:04;;;;;;;;;;;;;;;21.22;61.01;100406.09;4954194;29;19965;-76
2023/07/15 06:25:29;;;;;;;;;;;;;;;21.34;60.65;100406.16;4960717;28;20017;-77
2023/07/15 06:27:55;;;;;;;;;;;;;;;21.47;60.93;100405.19;4956751;28;19968;-76
2023/07/15 06:30:20;;;;;;;;;;;;;;;21.59;60.07;100410.66;4952744;29;20462;-76
2023/07/15 06:32:45;;;;;;;;;;;;;;;21.70;59.49;100407.97;4953144;29;19942;-75
2023/07/15 06:35:11;;;;;;;;;;;;;;;21.79;58.56;100399.22;4954227;28;19923;-76
2023/07/15 06:37:36;;;;;;;;;;;;;;;21.90;57.95;100399.25;4952975;29;20025;-79
2023/07/15 06:40:03;;;;;;;;;;;;;;;22.01;58.49;100401.13;4954419;29;19962;-79
2023/07/15 06:42:29;;;;;;;;;;;;;;;22.14;57.98;100403.75;4954872;29;19918;-79
2023/07/15 06:44:54;;;;;;;;;;;;;;;22.22;58.76;100401.31;4953823;29;19931;-78
2023/07/15 06:47:20;;;;;;;;;;;;;;;22.28;57.87;100408.97;4939521;28;19914;-78
2023/07/15 06:49:45;;;;;;;;;;;;;;;22.32;57.83;100407.72;4945645;28;20026;-78
2023/07/15 06:52:10;;;;;;;;;;;;;;;22.40;58.12;100411.66;4958371;28;20232;-78
2023/07/15 06:54:36;;;;;;;;;;;;;;;22.44;58.25;100414.00;4944458;29;19996;-79
2023/07/15 06:57:01;;;;;;;;;;;;;;;22.46;58.31;100408.50;4962367;28;19949;-78
2023/07/15 06:59:26;;;;;;;;;;;;;;;22.51;58.25;100407.16;4945123;28;19923;-79
2023/07/15 07:01:52;;;;;;;;;;;;;;;22.69;57.37;100395.88;4954952;28;19926;-78
2023/07/15 07:04:17;;;;;;;;;;;;;;;22.77;58.76;100388.00;4960273;28;20021;-79
2023/07/15 07:06:42;;;;;;;;;;;;;;;22.86;58.79;100392.69;4960252;28;19922;-79
2023/07/15 07:09:08;;;;;;;;;;;;;;;22.99;59.00;100392.56;4937099;29;20259;-78
2023/07/15 07:11:36;;;;;;;;;;;;;;;23.08;59.42;100404.50;4950247;28;19927;-78
2023/07/15 07:14:01;;;;;;;;;;;;;;;23.17;59.44;100398.34;4955944;28;20376;-80
2023/07/15 07:16:27;;;;;;;;;;;;;;;23.24;58.96;100387.88;4952457;29;19928;-80
2023/07/15 07:18:53;;;;;;;;;;;;;;;23.35;58.92;100393.25;4944303;28;20345;-80
2023/07/15 07:21:18;;;;;;;;;;;;;;;23.46;58.95;100403.19;4953759;29;19978;-79
2023/07/15 07:23:43;;;;;;;;;;;;;;;23.50;59.23;100405.50;4953627;29;20005;-80
2023/07/15 07:26:09;;;;;;;;;;;;;;;23.55;59.54;100403.28;4952402;29;20400;-81
2023/07/15 07:28:44;;;;;;;;;;;;;;;23.67;59.19;100403.25;4953611;29;19926;-81
2023/07/15 07:31:11;;;;;;;;;;;;;;;23.81;58.32;100408.34;4961399;28;19918;-80
2023/07/15 07:33:37;;;;;;;;;;;;;;;24.00;58.09;100416.63;4963316;28;19918;-80
2023/07/15 07:36:03;;;;;;;;;;;;;;;24.11;57.86;100412.16;4940096;28;19922;-80
2023/07/15 07:38:29;;;;;;;;;;;;;;;24.20;57.82;100414.94;4954194;28;19926;-81
2023/07/15 07:40:54;;;;;;;;;;;;;;;24.27;58.26;100414.41;4951991;29;19949;-79
2023/07/15 07:43:20;;;;;;;;;;;;;;;24.33;57.98;100419.28;4951748;28;20325;-79
2023/07/15 07:45:45;;;;;;;;;;;;;;;24.29;58.12;100423.25;4947295;28;20262;-79
2023/07/15 07:48:11;;;;;;;;;;;;;;;24.30;57.35;100424.97;4939624;28;19922;-78
2023/07/15 07:50:36;;;;;;;;;;;;;;;24.23;58.02;100430.91;4935508;29;19918;-78
2023/07/15 07:53:01;;;;;;;;;;;;;;;24.30;57.55;100419.56;4953193;29;19918;-78
2023/07/15 07:55:27;;;;;;;;;;;;;;;24.42;56.74;100423.91;4951578;29;19922;-78
2023/07/15 07:57:52;;;;;;;;;;;;;;;24.43;57.15;100417.50;4951625;29;20265;-78
2023/07/15 08:00:18;;;;;;;;;;;;;;;24.54;57.21;100409.34;4952942;29;19922;-78
2023/07/15 08:02:43;;;;;;;;;;;;;;;24.66;56.46;100410.13;4952852;28;19989;-78
2023/07/15 08:05:08;;;;;;;;;;;;;;;24.71;57.22;100397.03;4952896;29;19918;-78
2023/07/15 08:07:34;;;;;;;;;;;;;;;24.81;57.08;100397.94;4951822;29;20329;-78
2023/07/15 08:09:59;;;;;;;;;;;;;;;24.79;56.49;100407.19;4949344;28;19922;-78
2023/07/15 08:12:25;;;;;;;;;;;;;;;24.81;56.82;100413.31;4935127;29;20650;-78
2023/07/15 08:14:50;;;;;;;;;;;;;;;24.88;57.28;100407.22;4951048;29;20251;-78
2023/07/15 08:17:16;;;;;;;;;;;;;;;24.96;56.77;100417.38;4950389;29;20241;-78
2023/07/15 08:19:42;;;;;;;;;;;;;;;24.92;56.97;100417.78;4950866;29;19925;-79
2023/07/15 08:22:07;;;;;;;;;;;;;;;24.83;55.92;100409.50;4951366;29;19930;-78
2023/07/15 08:24:33;;;;;;;;;;;;;;;24.81;57.38;100408.75;4950904;29;20381;-78
2023/07/15 08:26:59;;;;;;;;;;;;;;;24.77;56.72;100420.84;4935251;29;20017;-79
2023/07/15 08:29:24;;;;;;;;;;;;;;;24.81;56.69;100427.72;4951970;29;19969;-79
2023/07/15 08:31:49;;;;;;;;;;;;;;;24.82;56.70;100424.00;4951711;29;19974;-78
2023/07/15 08:34:15;;;;;;;;;;;;;;;24.81;56.74;100435.00;4953279;29;19928;-78
2023/07/15 08:36:40;;;;;;;;;;;;;;;24.75;56.88;100439.06;4953268;29;19949;-78
2023/07/15 08:39:05;;;;;;;;;;;;;;;24.76;56.95;100435.38;4953130;29;20341;-79
2023/07/15 08:41:31;;;;;;;;;;;;;;;24.84;56.94;100437.41;4950511;29;20292;-79
2023/07/15 08:43:56;;;;;;;;;;;;;;;24.77;57.44;100445.22;4951534;29;20092;-79
2023/07/15 08:46:26;;;;;;;;;;;;;;;24.79;57.19;100432.41;4951758;29;19967;-79
2023/07/15 08:48:58;;;;;;;;;;;;;;;24.82;57.71;100442.97;4937644;29;19965;-79
2023/07/15 08:51:31;;;;;;;;;;;;;;;24.84;57.40;100448.25;4950980;29;19918;-78
2023/07/15 08:53:56;;;;;;;;;;;;;;;24.81;57.43;100456.66;4938784;29;20400;-76
2023/07/15 08:56:24;;;;;;;;;;;;;;;24.74;57.71;100463.59;4934975;29;19918;-77
2023/07/15 08:58:49;;;;;;;;;;;;;;;24.72;57.64;100461.00;4953613;28;19922;-77
2023/07/15 09:01:15;;;;;;;;;;;;;;;24.64;58.44;100467.09;4939307;29;19993;-77
2023/07/15 09:03:40;;;;;;;;;;;;;;;24.58;57.62;100470.34;4955713;29;20226;-76
2023/07/15 09:06:06;;;;;;;;;;;;;;;24.42;57.60;100468.06;4955910;29;20318;-78
2023/07/15 09:08:31;;;;;;;;;;;;;;;24.55;57.42;100475.16;4954032;28;20313;-78
2023/07/15 09:10:58;;;;;;;;;;;;;;;24.32;57.83;100480.66;4936414;29;20277;-78
2023/07/15 09:13:24;;;;;;;;;;;;;;;24.17;58.01;100477.41;4937843;29;19930;-78
2023/07/15 09:15:50;;;;;;;;;;;;;;;24.09;58.08;100466.41;4955214;29;19926;-78
2023/07/15 09:18:15;;;;;;;;;;;;;;;24.06;58.45;100471.19;4938198;29;20025;-78
2023/07/15 09:20:41;;;;;;;;;;;;;;;23.99;58.76;100479.84;4938362;29;19941;-78
2023/07/15 09:23:07;;;;;;;;;;;;;;;24.15;58.08;100470.44;4954437;29;20088;-77
2023/07/15 09:25:35;;;;;;;;;;;;;;;24.02;58.49;100460.63;4953883;28;19978;-77
2023/07/15 09:28:01;;;;;;;;;;;;;;;24.14;58.20;100479.53;4942855;28;19923;-77
2023/07/15 09:30:26;;;;;;;;;;;;;;;24.37;58.12;100483.84;4955531;29;19918;-78
2023/07/15 09:32:52;;;;;;;;;;;;;;;24.71;57.01;100477.41;4938722;29;19995;-78
2023/07/15 09:35:17;;;;;;;;;;;;;;;24.93;55.88;100481.81;4955669;29;19927;-77
2023/07/15 09:37:46;;;;;;;;;;;;;;;24.91;55.47;100483.78;4921254;28;19958;-77
2023/07/15 09:40:12;;;;;;;;;;;;;;;24.85;54.95;100474.31;4939658;29;19934;-78
2023/07/15 09:43:03;;;;;;;;;;;;;;;24.75;54.79;100468.84;4953861;28;19927;-78
2023/07/15 09:45:36;;;;;;;;;;;;;;;24.64;54.83;100483.34;4928548;29;19918;-78
2023/07/15 09:48:02;;;;;;;;;;;;;;;24.41;54.09;100489.88;4964901;28;19938;-78
2023/07/15 09:50:28;;;;;;;;;;;;;;;24.34;54.61;100497.63;4937319;29;19927;-77
2023/07/15 09:52:54;;;;;;;;;;;;;;;24.08;55.35;100498.97;4937401;29;19922;-78
2023/07/15 09:55:20;;;;;;;;;;;;;;;24.02;55.77;100512.03;4937167;29;19941;-77
2023/07/15 09:57:49;;;;;;;;;;;;;;;24.00;55.94;100514.00;4933395;29;20390;-77
2023/07/15 10:00:15;;;;;;;;;;;;;;;23.94;56.20;100519.09;4951854;29;20281;-79
2023/07/15 10:02:41;;;;;;;;;;;;;;;23.89;56.32;100527.56;4945452;28;19946;-79
2023/07/15 10:05:13;;;;;;;;;;;;;;;23.77;56.92;100520.47;4943550;28;19931;-79
2023/07/15 10:07:40;;;;;;;;;;;;;;;23.75;57.30;100526.00;4908093;29;19933;-79
2023/07/15 10:10:07;;;;;;;;;;;;;;;23.80;57.59;100521.06;4944717;28;20053;-78
2023/07/15 10:12:34;;;;;;;;;;;;;;;23.78;57.86;100514.91;4941391;29;20367;-79
2023/07/15 10:15:00;;;;;;;;;;;;;;;23.67;58.82;100503.25;4938686;29;19989;-80
2023/07/15 10:17:32;;;;;;;;;;;;;;;23.54;58.96;100514.19;4951714;28;19985;-77
2023/07/15 10:20:10;;;;;;;;;;;;;;;23.47;60.91;100511.16;4938359;29;19990;-79
2023/07/15 10:22:36;;;;;;;;;;;;;;;23.38;60.70;100503.78;4928680;29;19973;-78
2023/07/15 10:25:03;;;;;;;;;;;;;;;23.34;62.46;100494.19;4933603;29;20030;-78
2023/07/15 10:27:29;;;;;;;;;;;;;;;23.29;61.24;100491.00;4951713;28;19961;-78
2023/07/15 10:30:15;;;;;;;;;;;;;;;23.19;63.89;100496.28;4947482;28;20295;-78
2023/07/15 10:33:03;;;;;;;;;;;;;;;23.11;63.48;100471.75;4939671;29;19918;-78
2023/07/15 10:35:32;;;;;;;;;;;;;;;23.07;64.31;100475.66;4935858;28;19919;-78
2023/07/15 10:38:02;;;;;;;;;;;;;;;23.12;64.75;100478.84;4920320;29;19927;-78
2023/07/15 10:40:57;;;;;;;;;;;;;;;23.15;65.17;100490.28;4949028;29;20002;-78
2023/07/15 10:43:35;;;;;;;;;;;;;;;23.17;65.93;100474.84;4933847;28;21018;-77
2023/07/15 10:46:06;;;;;;;;;;;;;;;23.21;64.47;100472.72;4945202;28;19919;-77
2023/07/15 10:48:32;;;;;;;;;;;;;;;23.28;64.50;100473.09;4929414;29;20009;-76
2023/07/15 10:50:58;;;;;;;;;;;;;;;23.38;64.50;100477.63;4954710;28;20013;-76
2023/07/15 10:53:26;;;;;;;;;;;;;;;23.39;64.30;100476.66;4954097;29;20449;-77
2023/07/15 10:55:54;;;;;;;;;;;;;;;23.44;64.41;100486.22;4933551;29;19919;-76
2023/07/15 10:58:20;;;;;;;;;;;;;;;23.51;63.94;100472.06;4941022;29;19930;-75
2023/07/15 11:00:45;;;;;;;;;;;;;;;23.60;62.69;100497.50;4946257;29;19918;-75
2023/07/15 11:03:11;;;;;;;;;;;;;;;23.56;62.70;100493.31;4944185;28;20016;-76
2023/07/15 11:05:36;;;;;;;;;;;;;;;23.57;63.44;100487.78;4940796;29;20323;-76
2023/07/15 11:08:04;;;;;;;;;;;;;;;23.59;62.66;100499.34;4936443;29;19934;-77
2023/07/15 11:10:33;;;;;;;;;;;;;;;23.60;62.69;100490.25;4935588;29;20346;-76
2023/07/15 11:13:09;;;;;;;;;;;;;;;23.54;62.65;100489.88;4952807;29;20052;-76
2023/07/15 11:15:35;;;;;;;;;;;;;;;23.53;62.65;100489.03;4935321;28;19931;-76
2023/07/15 11:18:01;;;;;;;;;;;;;;;23.59;63.16;100493.94;4919330;29;19927;-77
2023/07/15 11:20:26;;;;;;;;;;;;;;;23.61;62.98;100489.28;4948936;28;20055;-76
2023/07/15 11:22:52;;;;;;;;;;;;;;;23.66;62.20;100477.19;4936151;29;19923;-75
2023/07/15 11:25:17;;;;;;;;;;;;;;;23.66;61.10;100482.59;4953377;29;19977;-75
2023/07/15 11:27:43;;;;;;;;;;;;;;;23.61;61.86;100485.69;4957747;28;20357;-75
2023/07/15 11:30:09;;;;;;;;;;;;;;;23.55;62.09;100480.78;4952897;29;19926;-76
2023/07/15 11:32:34;;;;;;;;;;;;;;;23.71;61.72;100480.38;4933826;29;19922;-75
2023/07/15 11:35:10;;;;;;;;;;;;;;;23.92;61.41;100489.44;4958249;28;19973;-76
2023/07/15 11:37:41;;;;;;;;;;;;;;;24.29;60.55;100477.38;4953098;29;20415;-76
2023/07/15 11:40:07;;;;;;;;;;;;;;;24.52;59.45;100484.41;4919713;29;19919;-77
2023/07/15 11:42:35;;;;;;;;;;;;;;;24.66;57.88;100465.13;4920015;29;19918;-78
2023/07/15 11:45:00;;;;;;;;;;;;;;;24.93;55.67;100461.00;4953270;29;19925;-78
2023/07/15 11:47:25;;;;;;;;;;;;;;;24.83;55.45;100469.06;4953628;29;19997;-77
2023/07/15 11:49:52;;;;;;;;;;;;;;;25.10;55.12;100460.34;4952543;29;19923;-84
2023/07/15 11:52:23;;;;;;;;;;;;;;;25.38;54.69;100451.63;4935807;29;19955;-78
2023/07/15 11:54:48;;;;;;;;;;;;;;;25.58;53.26;100450.66;4953363;29;20017;-78
2023/07/15 11:57:22;;;;;;;;;;;;;;;25.64;53.92;100442.00;4952977;28;20303;-78
2023/07/15 11:59:49;;;;;;;;;;;;;;;25.83;54.91;100443.84;4932121;29;20354;-77
2023/07/15 12:02:14;;;;;;;;;;;;;;;26.01;51.88;100440.44;4951811;29;19981;-79
2023/07/15 12:04:41;;;;;;;;;;;;;;;25.86;52.41;100437.31;4952804;29;20008;-79
2023/07/15 12:07:07;;;;;;;;;;;;;;;25.83;52.60;100445.69;4953126;29;19950;-78
2023/07/15 12:09:33;;;;;;;;;;;;;;;25.76;53.41;100434.56;4949486;28;19923;-78
2023/07/15 12:11:58;;;;;;;;;;;;;;;25.69;53.39;100442.41;4952819;29;19918;-78
2023/07/15 12:14:25;;;;;;;;;;;;;;;25.61;53.23;100428.69;4952777;29;20012;-79
2023/07/15 12:16:53;;;;;;;;;;;;;;;25.49;53.48;100421.69;4953034;29;19929;-78
2023/07/15 12:19:19;;;;;;;;;;;;;;;25.52;53.29;100424.97;4952633;29;19934;-78
2023/07/15 12:21:45;;;;;;;;;;;;;;;25.45;52.85;100428.41;4952676;29;19997;-79
2023/07/15 12:24:10;;;;;;;;;;;;;;;25.32;53.99;100425.91;4952622;29;19950;-81
2023/07/15 12:26:35;;;;;;;;;;;;;;;25.35;53.89;100417.53;4950934;29;19958;-79
2023/07/15 12:29:01;;;;;;;;;;;;;;;25.36;54.16;100427.38;4952447;29;19945;-81
2023/07/15 12:31:26;;;;;;;;;;;;;;;25.31;55.06;100427.78;4967010;28;19926;-79
2023/07/15 12:33:52;;;;;;;;;;;;;;;25.42;54.98;100424.13;4952049;29;19985;-78